Terminal Aerodrome Forecast
Issued by NWS

Current Version | Previous Version | Graphics & Text | Print | Product List | Glossary On
Versions: 1 2 3 4 5 6 7 8 9 10 11 12 13 14 15 16 17 18 19 20 21 22 23 24
000
FTUS41 KILN 031100
TAFLUK
TAF
KLUK 031129Z 0312/0412 12007KT 6SM -FZRA OVC035
     FM031500 15008KT 5SM -FZRA BR OVC025
     FM031800 20010KT 5SM -SHRA BR SCT009 OVC025
     FM032300 25011KT 3SM -SHRA BR BKN009 OVC015
     FM040600 30008KT 5SM BR VCSH OVC009=

USA.gov is the U.S. government's official web portal to all federal, state and local government web resources and services.